sensor_id;sensor_type;location;lat;lon;timestamp;P1;durP1;ratioP1;P2;durP2;ratioP2
19049;SDS011;9657;45.940;12.840;2022-12-07T00:00:52;9.43;;;6.97;;
19049;SDS011;9657;45.940;12.840;2022-12-07T00:03:19;8.97;;;6.07;;
19049;SDS011;9657;45.940;12.840;2022-12-07T00:05:46;6.87;;;5.93;;
19049;SDS011;9657;45.940;12.840;2022-12-07T00:08:13;8.67;;;6.40;;
19049;SDS011;9657;45.940;12.840;2022-12-07T00:10:41;10.70;;;6.13;;
19049;SDS011;9657;45.940;12.840;2022-12-07T00:13:08;7.70;;;6.03;;
19049;SDS011;9657;45.940;12.840;2022-12-07T00:15:35;6.53;;;5.30;;
19049;SDS011;9657;45.940;12.840;2022-12-07T00:18:02;7.40;;;6.17;;
19049;SDS011;9657;45.940;12.840;2022-12-07T00:20:29;6.97;;;5.17;;
19049;SDS011;9657;45.940;12.840;2022-12-07T00:22:56;9.23;;;5.60;;
19049;SDS011;9657;45.940;12.840;2022-12-07T00:25:23;8.00;;;6.40;;
19049;SDS011;9657;45.940;12.840;2022-12-07T00:27:53;9.60;;;6.07;;
19049;SDS011;9657;45.940;12.840;2022-12-07T00:30:21;6.67;;;5.47;;
19049;SDS011;9657;45.940;12.840;2022-12-07T00:32:49;6.53;;;5.40;;
19049;SDS011;9657;45.940;12.840;2022-12-07T00:35:16;7.20;;;5.47;;
19049;SDS011;9657;45.940;12.840;2022-12-07T00:37:43;6.17;;;5.57;;
19049;SDS011;9657;45.940;12.840;2022-12-07T00:40:10;8.80;;;6.00;;
19049;SDS011;9657;45.940;12.840;2022-12-07T00:42:38;10.20;;;6.00;;
19049;SDS011;9657;45.940;12.840;2022-12-07T00:45:07;6.50;;;5.90;;
19049;SDS011;9657;45.940;12.840;2022-12-07T00:47:35;6.83;;;5.37;;
19049;SDS011;9657;45.940;12.840;2022-12-07T00:50:02;9.07;;;5.40;;
19049;SDS011;9657;45.940;12.840;2022-12-07T00:52:29;7.47;;;5.63;;
19049;SDS011;9657;45.940;12.840;2022-12-07T00:54:56;8.07;;;5.43;;
19049;SDS011;9657;45.940;12.840;2022-12-07T00:57:23;7.30;;;5.37;;
19049;SDS011;9657;45.940;12.840;2022-12-07T00:59:50;6.10;;;5.50;;
19049;SDS011;9657;45.940;12.840;2022-12-07T01:02:21;6.47;;;5.03;;
19049;SDS011;9657;45.940;12.840;2022-12-07T01:04:48;5.97;;;4.90;;
19049;SDS011;9657;45.940;12.840;2022-12-07T01:07:15;8.93;;;5.63;;
19049;SDS011;9657;45.940;12.840;2022-12-07T01:09:42;6.87;;;5.50;;
19049;SDS011;9657;45.940;12.840;2022-12-07T01:12:09;6.30;;;5.43;;
19049;SDS011;9657;45.940;12.840;2022-12-07T01:14:36;6.67;;;5.40;;
19049;SDS011;9657;45.940;12.840;2022-12-07T01:17:03;5.47;;;4.80;;
19049;SDS011;9657;45.940;12.840;2022-12-07T01:19:32;6.40;;;4.63;;
19049;SDS011;9657;45.940;12.840;2022-12-07T01:21:59;5.80;;;4.57;;
19049;SDS011;9657;45.940;12.840;2022-12-07T01:24:26;7.20;;;5.00;;
19049;SDS011;9657;45.940;12.840;2022-12-07T01:26:53;6.10;;;4.60;;
19049;SDS011;9657;45.940;12.840;2022-12-07T01:29:20;7.93;;;5.20;;
19049;SDS011;9657;45.940;12.840;2022-12-07T01:31:48;5.97;;;4.47;;
19049;SDS011;9657;45.940;12.840;2022-12-07T01:34:15;6.00;;;4.23;;
19049;SDS011;9657;45.940;12.840;2022-12-07T01:36:44;9.40;;;4.50;;
19049;SDS011;9657;45.940;12.840;2022-12-07T01:39:11;6.17;;;5.07;;
19049;SDS011;9657;45.940;12.840;2022-12-07T01:41:39;7.67;;;4.43;;
19049;SDS011;9657;45.940;12.840;2022-12-07T01:44:15;5.60;;;4.10;;
19049;SDS011;9657;45.940;12.840;2022-12-07T01:46:45;6.03;;;4.03;;
19049;SDS011;9657;45.940;12.840;2022-12-07T01:49:15;5.93;;;3.97;;
19049;SDS011;9657;45.940;12.840;2022-12-07T01:51:46;5.77;;;4.37;;
19049;SDS011;9657;45.940;12.840;2022-12-07T01:54:15;5.73;;;3.83;;
19049;SDS011;9657;45.940;12.840;2022-12-07T01:56:44;5.77;;;4.30;;
19049;SDS011;9657;45.940;12.840;2022-12-07T01:59:16;4.77;;;4.03;;
19049;SDS011;9657;45.940;12.840;2022-12-07T02:04:21;4.97;;;4.13;;
19049;SDS011;9657;45.940;12.840;2022-12-07T02:06:50;6.23;;;4.30;;
19049;SDS011;9657;45.940;12.840;2022-12-07T02:09:18;4.87;;;3.67;;
19049;SDS011;9657;45.940;12.840;2022-12-07T02:11:45;5.00;;;4.17;;
19049;SDS011;9657;45.940;12.840;2022-12-07T02:14:12;4.03;;;3.47;;
19049;SDS011;9657;45.940;12.840;2022-12-07T02:16:42;5.67;;;3.70;;
19049;SDS011;9657;45.940;12.840;2022-12-07T02:19:29;4.20;;;3.57;;
19049;SDS011;9657;45.940;12.840;2022-12-07T02:22:30;4.77;;;3.40;;
19049;SDS011;9657;45.940;12.840;2022-12-07T02:25:20;3.93;;;3.53;;
19049;SDS011;9657;45.940;12.840;2022-12-07T02:27:58;3.73;;;3.43;;
19049;SDS011;9657;45.940;12.840;2022-12-07T02:30:33;3.63;;;3.30;;
19049;SDS011;9657;45.940;12.840;2022-12-07T02:33:08;3.67;;;3.37;;
19049;SDS011;9657;45.940;12.840;2022-12-07T02:35:40;5.43;;;4.03;;
19049;SDS011;9657;45.940;12.840;2022-12-07T02:38:11;4.07;;;3.67;;
19049;SDS011;9657;45.940;12.840;2022-12-07T02:40:42;3.77;;;3.20;;
19049;SDS011;9657;45.940;12.840;2022-12-07T02:43:16;3.73;;;3.37;;
19049;SDS011;9657;45.940;12.840;2022-12-07T02:45:47;4.03;;;3.47;;
19049;SDS011;9657;45.940;12.840;2022-12-07T02:48:16;3.40;;;2.93;;
19049;SDS011;9657;45.940;12.840;2022-12-07T02:50:44;6.37;;;3.87;;
19049;SDS011;9657;45.940;12.840;2022-12-07T02:53:30;4.73;;;3.40;;
19049;SDS011;9657;45.940;12.840;2022-12-07T02:55:59;3.30;;;3.00;;
19049;SDS011;9657;45.940;12.840;2022-12-07T02:58:33;3.57;;;3.07;;
19049;SDS011;9657;45.940;12.840;2022-12-07T03:01:14;3.90;;;3.03;;
19049;SDS011;9657;45.940;12.840;2022-12-07T03:03:54;4.00;;;3.43;;
19049;SDS011;9657;45.940;12.840;2022-12-07T03:06:30;4.30;;;3.30;;
19049;SDS011;9657;45.940;12.840;2022-12-07T03:09:01;3.70;;;3.00;;
19049;SDS011;9657;45.940;12.840;2022-12-07T03:11:39;4.80;;;3.50;;
19049;SDS011;9657;45.940;12.840;2022-12-07T03:14:12;4.10;;;3.70;;
19049;SDS011;9657;45.940;12.840;2022-12-07T03:16:44;3.93;;;3.20;;
19049;SDS011;9657;45.940;12.840;2022-12-07T03:19:16;4.47;;;3.27;;
19049;SDS011;9657;45.940;12.840;2022-12-07T03:21:46;4.53;;;3.07;;
19049;SDS011;9657;45.940;12.840;2022-12-07T03:24:19;7.00;;;3.40;;
19049;SDS011;9657;45.940;12.840;2022-12-07T03:26:48;4.70;;;2.90;;
19049;SDS011;9657;45.940;12.840;2022-12-07T03:29:19;3.50;;;3.20;;
19049;SDS011;9657;45.940;12.840;2022-12-07T03:31:53;3.97;;;2.70;;
19049;SDS011;9657;45.940;12.840;2022-12-07T03:34:26;3.40;;;2.63;;
19049;SDS011;9657;45.940;12.840;2022-12-07T03:36:57;4.60;;;3.10;;
19049;SDS011;9657;45.940;12.840;2022-12-07T03:39:30;4.33;;;2.87;;
19049;SDS011;9657;45.940;12.840;2022-12-07T03:42:03;3.50;;;2.73;;
19049;SDS011;9657;45.940;12.840;2022-12-07T03:44:33;3.03;;;2.73;;
19049;SDS011;9657;45.940;12.840;2022-12-07T03:47:03;3.20;;;2.50;;
19049;SDS011;9657;45.940;12.840;2022-12-07T03:49:36;4.10;;;2.57;;
19049;SDS011;9657;45.940;12.840;2022-12-07T03:52:08;3.90;;;2.90;;
19049;SDS011;9657;45.940;12.840;2022-12-07T03:54:43;3.60;;;2.47;;
19049;SDS011;9657;45.940;12.840;2022-12-07T03:57:15;4.10;;;2.77;;
19049;SDS011;9657;45.940;12.840;2022-12-07T03:59:43;3.20;;;2.53;;
19049;SDS011;9657;45.940;12.840;2022-12-07T04:02:13;3.17;;;2.57;;
19049;SDS011;9657;45.940;12.840;2022-12-07T04:04:40;4.43;;;2.73;;
19049;SDS011;9657;45.940;12.840;2022-12-07T04:07:09;3.33;;;2.40;;
19049;SDS011;9657;45.940;12.840;2022-12-07T04:09:37;3.30;;;2.43;;
19049;SDS011;9657;45.940;12.840;2022-12-07T04:12:05;3.43;;;2.90;;
19049;SDS011;9657;45.940;12.840;2022-12-07T04:14:32;3.53;;;2.70;;
19049;SDS011;9657;45.940;12.840;2022-12-07T04:17:00;3.23;;;2.40;;
19049;SDS011;9657;45.940;12.840;2022-12-07T04:19:29;3.30;;;2.40;;
19049;SDS011;9657;45.940;12.840;2022-12-07T04:21:58;2.47;;;2.27;;
19049;SDS011;9657;45.940;12.840;2022-12-07T04:24:26;3.97;;;2.63;;
19049;SDS011;9657;45.940;12.840;2022-12-07T04:26:54;2.83;;;2.60;;
19049;SDS011;9657;45.940;12.840;2022-12-07T04:29:21;3.23;;;2.47;;
19049;SDS011;9657;45.940;12.840;2022-12-07T04:31:49;2.90;;;2.60;;
19049;SDS011;9657;45.940;12.840;2022-12-07T04:34:16;2.47;;;2.27;;
19049;SDS011;9657;45.940;12.840;2022-12-07T04:36:46;3.00;;;2.57;;
19049;SDS011;9657;45.940;12.840;2022-12-07T04:39:17;2.83;;;2.43;;
19049;SDS011;9657;45.940;12.840;2022-12-07T04:41:46;2.77;;;2.50;;
19049;SDS011;9657;45.940;12.840;2022-12-07T04:44:13;2.87;;;2.07;;
19049;SDS011;9657;45.940;12.840;2022-12-07T04:46:41;3.40;;;2.70;;
19049;SDS011;9657;45.940;12.840;2022-12-07T04:49:09;3.63;;;1.83;;
19049;SDS011;9657;45.940;12.840;2022-12-07T04:51:36;2.97;;;2.17;;
19049;SDS011;9657;45.940;12.840;2022-12-07T04:54:05;2.60;;;2.10;;
19049;SDS011;9657;45.940;12.840;2022-12-07T04:56:32;1.97;;;1.70;;
19049;SDS011;9657;45.940;12.840;2022-12-07T04:59:00;2.57;;;2.27;;
19049;SDS011;9657;45.940;12.840;2022-12-07T05:01:29;3.27;;;2.30;;
19049;SDS011;9657;45.940;12.840;2022-12-07T05:03:57;4.07;;;2.47;;
19049;SDS011;9657;45.940;12.840;2022-12-07T05:06:24;3.53;;;1.93;;
19049;SDS011;9657;45.940;12.840;2022-12-07T05:08:51;2.37;;;1.97;;
19049;SDS011;9657;45.940;12.840;2022-12-07T05:11:19;2.93;;;2.00;;
19049;SDS011;9657;45.940;12.840;2022-12-07T05:14:05;2.70;;;2.00;;
19049;SDS011;9657;45.940;12.840;2022-12-07T05:16:34;3.70;;;1.93;;
19049;SDS011;9657;45.940;12.840;2022-12-07T05:19:01;2.60;;;1.90;;
19049;SDS011;9657;45.940;12.840;2022-12-07T05:21:29;2.10;;;1.90;;
19049;SDS011;9657;45.940;12.840;2022-12-07T05:23:56;3.13;;;2.50;;
19049;SDS011;9657;45.940;12.840;2022-12-07T05:26:25;3.07;;;1.90;;
19049;SDS011;9657;45.940;12.840;2022-12-07T05:28:52;2.83;;;2.00;;
19049;SDS011;9657;45.940;12.840;2022-12-07T05:31:19;3.30;;;2.03;;
19049;SDS011;9657;45.940;12.840;2022-12-07T05:33:47;2.67;;;2.20;;
19049;SDS011;9657;45.940;12.840;2022-12-07T05:36:14;2.13;;;1.80;;
19049;SDS011;9657;45.940;12.840;2022-12-07T05:38:41;2.27;;;2.00;;
19049;SDS011;9657;45.940;12.840;2022-12-07T05:41:08;3.83;;;2.23;;
19049;SDS011;9657;45.940;12.840;2022-12-07T05:43:54;2.00;;;1.60;;
19049;SDS011;9657;45.940;12.840;2022-12-07T05:46:21;2.00;;;1.67;;
19049;SDS011;9657;45.940;12.840;2022-12-07T05:48:48;2.33;;;1.80;;
19049;SDS011;9657;45.940;12.840;2022-12-07T05:51:15;1.90;;;1.70;;
19049;SDS011;9657;45.940;12.840;2022-12-07T05:53:43;2.00;;;1.80;;
19049;SDS011;9657;45.940;12.840;2022-12-07T05:56:10;2.20;;;2.00;;
19049;SDS011;9657;45.940;12.840;2022-12-07T05:58:37;3.07;;;2.20;;
19049;SDS011;9657;45.940;12.840;2022-12-07T06:01:23;2.13;;;1.90;;
19049;SDS011;9657;45.940;12.840;2022-12-07T06:03:51;2.37;;;2.03;;
19049;SDS011;9657;45.940;12.840;2022-12-07T06:06:18;2.00;;;1.80;;
19049;SDS011;9657;45.940;12.840;2022-12-07T06:08:45;3.53;;;2.07;;
19049;SDS011;9657;45.940;12.840;2022-12-07T06:11:12;2.10;;;1.90;;
19049;SDS011;9657;45.940;12.840;2022-12-07T06:13:56;2.30;;;1.80;;
19049;SDS011;9657;45.940;12.840;2022-12-07T06:16:24;2.40;;;1.70;;
19049;SDS011;9657;45.940;12.840;2022-12-07T06:18:51;2.10;;;1.90;;
19049;SDS011;9657;45.940;12.840;2022-12-07T06:21:18;2.27;;;1.73;;
19049;SDS011;9657;45.940;12.840;2022-12-07T06:23:45;3.00;;;1.80;;
19049;SDS011;9657;45.940;12.840;2022-12-07T06:26:13;1.90;;;1.80;;
19049;SDS011;9657;45.940;12.840;2022-12-07T06:28:40;2.80;;;2.27;;
19049;SDS011;9657;45.940;12.840;2022-12-07T06:31:07;1.93;;;1.73;;
19049;SDS011;9657;45.940;12.840;2022-12-07T06:33:35;2.53;;;1.50;;
19049;SDS011;9657;45.940;12.840;2022-12-07T06:36:02;2.00;;;1.80;;
19049;SDS011;9657;45.940;12.840;2022-12-07T06:38:30;2.33;;;1.70;;
19049;SDS011;9657;45.940;12.840;2022-12-07T06:40:57;2.20;;;1.80;;
19049;SDS011;9657;45.940;12.840;2022-12-07T06:43:24;2.20;;;1.97;;
19049;SDS011;9657;45.940;12.840;2022-12-07T06:45:51;2.33;;;1.97;;
19049;SDS011;9657;45.940;12.840;2022-12-07T06:48:18;2.13;;;1.80;;
19049;SDS011;9657;45.940;12.840;2022-12-07T06:50:46;2.33;;;1.80;;
19049;SDS011;9657;45.940;12.840;2022-12-07T06:53:14;1.90;;;1.60;;
19049;SDS011;9657;45.940;12.840;2022-12-07T06:55:41;1.77;;;1.60;;
19049;SDS011;9657;45.940;12.840;2022-12-07T06:58:08;2.10;;;1.70;;
19049;SDS011;9657;45.940;12.840;2022-12-07T07:00:35;2.17;;;1.97;;
19049;SDS011;9657;45.940;12.840;2022-12-07T07:03:02;1.80;;;1.70;;
19049;SDS011;9657;45.940;12.840;2022-12-07T07:05:29;2.43;;;1.70;;
19049;SDS011;9657;45.940;12.840;2022-12-07T07:07:58;1.50;;;1.40;;
19049;SDS011;9657;45.940;12.840;2022-12-07T07:10:25;2.30;;;1.83;;
19049;SDS011;9657;45.940;12.840;2022-12-07T07:12:52;2.10;;;1.90;;
19049;SDS011;9657;45.940;12.840;2022-12-07T07:15:19;2.47;;;1.70;;
19049;SDS011;9657;45.940;12.840;2022-12-07T07:17:46;2.87;;;2.00;;
19049;SDS011;9657;45.940;12.840;2022-12-07T07:20:13;2.77;;;1.77;;
19049;SDS011;9657;45.940;12.840;2022-12-07T07:22:40;4.73;;;1.80;;
19049;SDS011;9657;45.940;12.840;2022-12-07T07:25:09;4.10;;;1.73;;
19049;SDS011;9657;45.940;12.840;2022-12-07T07:27:36;3.47;;;2.10;;
19049;SDS011;9657;45.940;12.840;2022-12-07T07:30:04;4.80;;;2.27;;
19049;SDS011;9657;45.940;12.840;2022-12-07T07:32:32;3.50;;;1.93;;
19049;SDS011;9657;45.940;12.840;2022-12-07T07:34:59;2.60;;;2.00;;
19049;SDS011;9657;45.940;12.840;2022-12-07T07:37:26;8.83;;;2.50;;
19049;SDS011;9657;45.940;12.840;2022-12-07T07:39:53;3.00;;;2.20;;
19049;SDS011;9657;45.940;12.840;2022-12-07T07:42:22;4.77;;;2.10;;
19049;SDS011;9657;45.940;12.840;2022-12-07T07:44:49;7.53;;;2.40;;
19049;SDS011;9657;45.940;12.840;2022-12-07T07:47:16;6.93;;;2.47;;
19049;SDS011;9657;45.940;12.840;2022-12-07T07:49:43;6.00;;;2.57;;
19049;SDS011;9657;45.940;12.840;2022-12-07T07:52:10;6.90;;;2.27;;
19049;SDS011;9657;45.940;12.840;2022-12-07T07:54:37;13.47;;;3.00;;
19049;SDS011;9657;45.940;12.840;2022-12-07T07:57:04;6.20;;;2.67;;
19049;SDS011;9657;45.940;12.840;2022-12-07T07:59:32;7.73;;;3.40;;
19049;SDS011;9657;45.940;12.840;2022-12-07T08:01:59;10.10;;;3.10;;
19049;SDS011;9657;45.940;12.840;2022-12-07T08:04:27;8.10;;;2.60;;
19049;SDS011;9657;45.940;12.840;2022-12-07T08:06:54;8.00;;;2.87;;
19049;SDS011;9657;45.940;12.840;2022-12-07T08:09:21;10.13;;;3.03;;
19049;SDS011;9657;45.940;12.840;2022-12-07T08:11:48;15.97;;;3.30;;
19049;SDS011;9657;45.940;12.840;2022-12-07T08:14:15;6.67;;;3.20;;
19049;SDS011;9657;45.940;12.840;2022-12-07T08:16:43;7.90;;;3.27;;
19049;SDS011;9657;45.940;12.840;2022-12-07T08:19:10;6.10;;;3.47;;
19049;SDS011;9657;45.940;12.840;2022-12-07T08:21:37;11.90;;;3.13;;
19049;SDS011;9657;45.940;12.840;2022-12-07T08:24:05;13.20;;;3.57;;
19049;SDS011;9657;45.940;12.840;2022-12-07T08:26:32;10.47;;;3.10;;
19049;SDS011;9657;45.940;12.840;2022-12-07T08:28:59;12.87;;;4.37;;
19049;SDS011;9657;45.940;12.840;2022-12-07T08:31:26;8.60;;;4.20;;
19049;SDS011;9657;45.940;12.840;2022-12-07T08:33:55;10.93;;;3.93;;
19049;SDS011;9657;45.940;12.840;2022-12-07T08:36:22;12.03;;;4.00;;
19049;SDS011;9657;45.940;12.840;2022-12-07T08:38:50;12.33;;;4.43;;
19049;SDS011;9657;45.940;12.840;2022-12-07T08:41:17;16.70;;;4.07;;
19049;SDS011;9657;45.940;12.840;2022-12-07T08:43:44;12.57;;;3.90;;
19049;SDS011;9657;45.940;12.840;2022-12-07T08:46:12;17.00;;;4.77;;
19049;SDS011;9657;45.940;12.840;2022-12-07T08:48:44;13.90;;;3.83;;
19049;SDS011;9657;45.940;12.840;2022-12-07T08:51:16;14.47;;;4.53;;
19049;SDS011;9657;45.940;12.840;2022-12-07T08:53:44;13.73;;;4.50;;
19049;SDS011;9657;45.940;12.840;2022-12-07T08:56:12;10.57;;;4.07;;
19049;SDS011;9657;45.940;12.840;2022-12-07T08:58:39;11.73;;;4.40;;
19049;SDS011;9657;45.940;12.840;2022-12-07T09:01:07;11.67;;;4.23;;
19049;SDS011;9657;45.940;12.840;2022-12-07T09:03:34;17.27;;;4.40;;
19049;SDS011;9657;45.940;12.840;2022-12-07T09:06:01;10.77;;;4.17;;
19049;SDS011;9657;45.940;12.840;2022-12-07T09:08:30;16.27;;;4.30;;
19049;SDS011;9657;45.940;12.840;2022-12-07T09:11:01;12.90;;;4.47;;
19049;SDS011;9657;45.940;12.840;2022-12-07T09:13:28;18.47;;;4.70;;
19049;SDS011;9657;45.940;12.840;2022-12-07T09:15:55;13.60;;;4.83;;
19049;SDS011;9657;45.940;12.840;2022-12-07T09:18:22;15.50;;;4.80;;
19049;SDS011;9657;45.940;12.840;2022-12-07T09:20:50;15.70;;;3.77;;
19049;SDS011;9657;45.940;12.840;2022-12-07T09:23:17;11.70;;;4.43;;
19049;SDS011;9657;45.940;12.840;2022-12-07T09:25:45;12.57;;;4.10;;
19049;SDS011;9657;45.940;12.840;2022-12-07T09:28:12;11.63;;;4.53;;
19049;SDS011;9657;45.940;12.840;2022-12-07T09:30:44;15.10;;;3.90;;
19049;SDS011;9657;45.940;12.840;2022-12-07T09:33:13;17.63;;;3.87;;
19049;SDS011;9657;45.940;12.840;2022-12-07T09:35:43;13.07;;;4.30;;
19049;SDS011;9657;45.940;12.840;2022-12-07T09:38:11;15.80;;;4.40;;
19049;SDS011;9657;45.940;12.840;2022-12-07T09:40:38;11.67;;;4.60;;
19049;SDS011;9657;45.940;12.840;2022-12-07T09:43:12;18.80;;;3.77;;
19049;SDS011;9657;45.940;12.840;2022-12-07T09:45:40;9.93;;;3.60;;
19049;SDS011;9657;45.940;12.840;2022-12-07T09:48:09;11.70;;;4.63;;
19049;SDS011;9657;45.940;12.840;2022-12-07T09:50:42;14.53;;;4.50;;
19049;SDS011;9657;45.940;12.840;2022-12-07T09:53:14;13.80;;;3.97;;
19049;SDS011;9657;45.940;12.840;2022-12-07T09:55:45;14.37;;;4.23;;
19049;SDS011;9657;45.940;12.840;2022-12-07T09:58:16;11.77;;;4.07;;
19049;SDS011;9657;45.940;12.840;2022-12-07T10:00:47;10.07;;;3.37;;
19049;SDS011;9657;45.940;12.840;2022-12-07T10:03:15;10.40;;;3.27;;
19049;SDS011;9657;45.940;12.840;2022-12-07T10:05:44;10.23;;;3.47;;
19049;SDS011;9657;45.940;12.840;2022-12-07T10:08:13;16.23;;;4.00;;
19049;SDS011;9657;45.940;12.840;2022-12-07T10:10:42;8.40;;;3.07;;
19049;SDS011;9657;45.940;12.840;2022-12-07T10:13:10;15.03;;;3.83;;
19049;SDS011;9657;45.940;12.840;2022-12-07T10:15:44;17.50;;;3.27;;
19049;SDS011;9657;45.940;12.840;2022-12-07T10:18:20;6.97;;;2.97;;
19049;SDS011;9657;45.940;12.840;2022-12-07T10:20:59;6.50;;;2.90;;
19049;SDS011;9657;45.940;12.840;2022-12-07T10:23:28;9.67;;;4.03;;
19049;SDS011;9657;45.940;12.840;2022-12-07T10:25:55;10.60;;;3.80;;
19049;SDS011;9657;45.940;12.840;2022-12-07T10:28:22;9.00;;;3.17;;
19049;SDS011;9657;45.940;12.840;2022-12-07T10:31:02;12.47;;;4.10;;
19049;SDS011;9657;45.940;12.840;2022-12-07T10:33:48;12.33;;;3.90;;
19049;SDS011;9657;45.940;12.840;2022-12-07T10:36:18;6.87;;;3.57;;
19049;SDS011;9657;45.940;12.840;2022-12-07T10:38:48;12.47;;;3.87;;
19049;SDS011;9657;45.940;12.840;2022-12-07T10:41:17;5.87;;;3.13;;
19049;SDS011;9657;45.940;12.840;2022-12-07T10:43:49;9.90;;;3.63;;
19049;SDS011;9657;45.940;12.840;2022-12-07T10:52:18;10.17;;;3.40;;
19049;SDS011;9657;45.940;12.840;2022-12-07T10:54:59;9.30;;;3.50;;
19049;SDS011;9657;45.940;12.840;2022-12-07T10:57:42;11.10;;;3.33;;
19049;SDS011;9657;45.940;12.840;2022-12-07T11:00:18;6.03;;;3.30;;
19049;SDS011;9657;45.940;12.840;2022-12-07T11:02:55;6.93;;;3.70;;
19049;SDS011;9657;45.940;12.840;2022-12-07T11:05:37;11.30;;;3.23;;
19049;SDS011;9657;45.940;12.840;2022-12-07T11:08:13;7.50;;;3.70;;
19049;SDS011;9657;45.940;12.840;2022-12-07T11:10:50;6.97;;;2.57;;
19049;SDS011;9657;45.940;12.840;2022-12-07T11:13:23;7.17;;;2.80;;
19049;SDS011;9657;45.940;12.840;2022-12-07T11:19:02;6.60;;;3.37;;
19049;SDS011;9657;45.940;12.840;2022-12-07T11:21:48;6.27;;;3.17;;
19049;SDS011;9657;45.940;12.840;2022-12-07T11:24:24;6.20;;;2.63;;
19049;SDS011;9657;45.940;12.840;2022-12-07T11:27:02;9.50;;;3.60;;
19049;SDS011;9657;45.940;12.840;2022-12-07T11:32:44;5.90;;;3.03;;
19049;SDS011;9657;45.940;12.840;2022-12-07T11:35:21;6.60;;;3.37;;
19049;SDS011;9657;45.940;12.840;2022-12-07T11:37:59;6.37;;;3.13;;
19049;SDS011;9657;45.940;12.840;2022-12-07T11:40:34;5.33;;;3.10;;
19049;SDS011;9657;45.940;12.840;2022-12-07T11:43:04;5.93;;;3.10;;
19049;SDS011;9657;45.940;12.840;2022-12-07T11:45:41;7.77;;;2.90;;
19049;SDS011;9657;45.940;12.840;2022-12-07T11:48:10;10.23;;;2.93;;
19049;SDS011;9657;45.940;12.840;2022-12-07T11:50:43;6.37;;;3.00;;
19049;SDS011;9657;45.940;12.840;2022-12-07T11:53:17;4.73;;;2.70;;
19049;SDS011;9657;45.940;12.840;2022-12-07T11:55:47;7.40;;;3.23;;
19049;SDS011;9657;45.940;12.840;2022-12-07T11:58:35;5.53;;;2.50;;
19049;SDS011;9657;45.940;12.840;2022-12-07T12:01:16;6.53;;;2.70;;
19049;SDS011;9657;45.940;12.840;2022-12-07T12:03:53;6.10;;;3.40;;
19049;SDS011;9657;45.940;12.840;2022-12-07T12:06:28;5.27;;;2.53;;
19049;SDS011;9657;45.940;12.840;2022-12-07T12:08:58;5.17;;;2.57;;
19049;SDS011;9657;45.940;12.840;2022-12-07T12:11:36;5.43;;;3.10;;
19049;SDS011;9657;45.940;12.840;2022-12-07T12:14:20;4.90;;;2.63;;
19049;SDS011;9657;45.940;12.840;2022-12-07T12:17:15;4.50;;;2.67;;
19049;SDS011;9657;45.940;12.840;2022-12-07T12:20:00;6.47;;;2.80;;
19049;SDS011;9657;45.940;12.840;2022-12-07T12:22:35;7.00;;;2.70;;
19049;SDS011;9657;45.940;12.840;2022-12-07T12:25:06;7.17;;;2.53;;
19049;SDS011;9657;45.940;12.840;2022-12-07T12:27:48;5.53;;;2.80;;
19049;SDS011;9657;45.940;12.840;2022-12-07T12:30:29;4.27;;;2.60;;
19049;SDS011;9657;45.940;12.840;2022-12-07T12:33:02;4.97;;;2.93;;
19049;SDS011;9657;45.940;12.840;2022-12-07T12:35:33;4.20;;;2.30;;
19049;SDS011;9657;45.940;12.840;2022-12-07T12:40:59;2.57;;;2.17;;
19049;SDS011;9657;45.940;12.840;2022-12-07T12:43:47;5.43;;;2.40;;
19049;SDS011;9657;45.940;12.840;2022-12-07T12:55:19;4.70;;;2.40;;
19049;SDS011;9657;45.940;12.840;2022-12-07T13:07:10;3.53;;;2.60;;
19049;SDS011;9657;45.940;12.840;2022-12-07T13:09:42;3.70;;;1.87;;
19049;SDS011;9657;45.940;12.840;2022-12-07T13:12:14;4.67;;;2.53;;
19049;SDS011;9657;45.940;12.840;2022-12-07T13:14:58;2.73;;;2.30;;
19049;SDS011;9657;45.940;12.840;2022-12-07T13:20:47;4.87;;;2.23;;
19049;SDS011;9657;45.940;12.840;2022-12-07T13:23:20;4.63;;;2.73;;
19049;SDS011;9657;45.940;12.840;2022-12-07T13:26:04;3.27;;;2.10;;
19049;SDS011;9657;45.940;12.840;2022-12-07T13:28:42;2.83;;;1.60;;
19049;SDS011;9657;45.940;12.840;2022-12-07T13:31:13;3.37;;;2.10;;
19049;SDS011;9657;45.940;12.840;2022-12-07T13:33:45;4.07;;;2.00;;
19049;SDS011;9657;45.940;12.840;2022-12-07T13:36:18;3.13;;;2.00;;
19049;SDS011;9657;45.940;12.840;2022-12-07T13:38:48;3.73;;;2.00;;
19049;SDS011;9657;45.940;12.840;2022-12-07T13:41:17;2.50;;;1.67;;
19049;SDS011;9657;45.940;12.840;2022-12-07T13:43:48;4.50;;;1.70;;
19049;SDS011;9657;45.940;12.840;2022-12-07T13:46:17;3.53;;;1.87;;
19049;SDS011;9657;45.940;12.840;2022-12-07T13:48:47;3.50;;;1.70;;
19049;SDS011;9657;45.940;12.840;2022-12-07T13:51:19;4.10;;;2.20;;
19049;SDS011;9657;45.940;12.840;2022-12-07T13:53:50;4.60;;;2.43;;
19049;SDS011;9657;45.940;12.840;2022-12-07T13:56:20;3.83;;;2.00;;
19049;SDS011;9657;45.940;12.840;2022-12-07T13:58:50;3.77;;;1.60;;
19049;SDS011;9657;45.940;12.840;2022-12-07T14:01:17;3.13;;;1.80;;
19049;SDS011;9657;45.940;12.840;2022-12-07T14:03:44;3.27;;;1.83;;
19049;SDS011;9657;45.940;12.840;2022-12-07T14:06:15;5.77;;;2.07;;
19049;SDS011;9657;45.940;12.840;2022-12-07T14:08:45;4.07;;;2.57;;
19049;SDS011;9657;45.940;12.840;2022-12-07T14:11:14;2.77;;;1.87;;
19049;SDS011;9657;45.940;12.840;2022-12-07T14:13:45;3.03;;;1.90;;
19049;SDS011;9657;45.940;12.840;2022-12-07T14:16:24;3.33;;;1.93;;
19049;SDS011;9657;45.940;12.840;2022-12-07T14:18:54;2.93;;;1.73;;
19049;SDS011;9657;45.940;12.840;2022-12-07T14:21:23;3.07;;;1.60;;
19049;SDS011;9657;45.940;12.840;2022-12-07T14:26:39;5.57;;;1.87;;
19049;SDS011;9657;45.940;12.840;2022-12-07T14:29:20;3.97;;;1.83;;
19049;SDS011;9657;45.940;12.840;2022-12-07T14:31:49;3.10;;;1.93;;
19049;SDS011;9657;45.940;12.840;2022-12-07T14:34:16;3.33;;;2.00;;
19049;SDS011;9657;45.940;12.840;2022-12-07T14:36:43;3.70;;;1.83;;
19049;SDS011;9657;45.940;12.840;2022-12-07T14:39:10;2.53;;;2.03;;
19049;SDS011;9657;45.940;12.840;2022-12-07T14:41:37;3.70;;;1.70;;
19049;SDS011;9657;45.940;12.840;2022-12-07T14:44:22;2.63;;;1.90;;
19049;SDS011;9657;45.940;12.840;2022-12-07T14:46:50;4.00;;;2.10;;
19049;SDS011;9657;45.940;12.840;2022-12-07T14:49:17;1.90;;;1.60;;
19049;SDS011;9657;45.940;12.840;2022-12-07T14:51:45;3.63;;;1.87;;
19049;SDS011;9657;45.940;12.840;2022-12-07T14:54:14;3.10;;;1.90;;
19049;SDS011;9657;45.940;12.840;2022-12-07T14:56:44;2.43;;;1.97;;
19049;SDS011;9657;45.940;12.840;2022-12-07T14:59:14;3.47;;;1.90;;
19049;SDS011;9657;45.940;12.840;2022-12-07T15:01:43;3.40;;;2.10;;
19049;SDS011;9657;45.940;12.840;2022-12-07T15:04:10;2.83;;;1.93;;
19049;SDS011;9657;45.940;12.840;2022-12-07T15:06:37;3.60;;;1.67;;
19049;SDS011;9657;45.940;12.840;2022-12-07T15:09:04;4.03;;;1.60;;
19049;SDS011;9657;45.940;12.840;2022-12-07T15:11:31;2.57;;;1.97;;
19049;SDS011;9657;45.940;12.840;2022-12-07T15:13:58;2.97;;;2.03;;
19049;SDS011;9657;45.940;12.840;2022-12-07T15:16:36;2.87;;;1.90;;
19049;SDS011;9657;45.940;12.840;2022-12-07T15:19:08;2.73;;;2.00;;
19049;SDS011;9657;45.940;12.840;2022-12-07T15:21:38;3.50;;;1.83;;
19049;SDS011;9657;45.940;12.840;2022-12-07T15:24:07;4.37;;;1.90;;
19049;SDS011;9657;45.940;12.840;2022-12-07T15:26:35;2.57;;;1.83;;
19049;SDS011;9657;45.940;12.840;2022-12-07T15:29:02;3.53;;;2.20;;
19049;SDS011;9657;45.940;12.840;2022-12-07T15:31:29;3.63;;;2.27;;
19049;SDS011;9657;45.940;12.840;2022-12-07T15:33:56;2.87;;;2.00;;
19049;SDS011;9657;45.940;12.840;2022-12-07T15:36:25;2.63;;;2.00;;
19049;SDS011;9657;45.940;12.840;2022-12-07T15:38:54;2.90;;;2.50;;
19049;SDS011;9657;45.940;12.840;2022-12-07T15:41:22;2.87;;;2.10;;
19049;SDS011;9657;45.940;12.840;2022-12-07T15:43:49;2.77;;;2.03;;
19049;SDS011;9657;45.940;12.840;2022-12-07T15:46:35;5.30;;;2.20;;